sensor_id;sensor_type;location;lat;lon;timestamp;P1;durP1;ratioP1;P2;durP2;ratioP2
13425;SDS011;6785;57.918;12.530;2022-11-22T00:02:21;2.20;;;2.00;;
13425;SDS011;6785;57.918;12.530;2022-11-22T00:04:48;2.40;;;1.73;;
13425;SDS011;6785;57.918;12.530;2022-11-22T00:07:16;3.60;;;1.87;;
13425;SDS011;6785;57.918;12.530;2022-11-22T00:09:43;2.60;;;2.00;;
13425;SDS011;6785;57.918;12.530;2022-11-22T00:12:10;1.97;;;1.77;;
13425;SDS011;6785;57.918;12.530;2022-11-22T00:14:37;2.00;;;1.80;;
13425;SDS011;6785;57.918;12.530;2022-11-22T00:17:03;1.90;;;1.70;;
13425;SDS011;6785;57.918;12.530;2022-11-22T00:19:30;1.90;;;1.70;;
13425;SDS011;6785;57.918;12.530;2022-11-22T00:21:57;2.00;;;1.80;;
13425;SDS011;6785;57.918;12.530;2022-11-22T00:24:25;1.97;;;1.77;;
13425;SDS011;6785;57.918;12.530;2022-11-22T00:26:52;2.93;;;2.20;;
13425;SDS011;6785;57.918;12.530;2022-11-22T00:29:19;2.23;;;1.83;;
13425;SDS011;6785;57.918;12.530;2022-11-22T00:31:45;2.93;;;1.77;;
13425;SDS011;6785;57.918;12.530;2022-11-22T00:34:12;2.20;;;1.80;;
13425;SDS011;6785;57.918;12.530;2022-11-22T00:36:39;1.73;;;1.63;;
13425;SDS011;6785;57.918;12.530;2022-11-22T00:39:06;1.80;;;1.70;;
13425;SDS011;6785;57.918;12.530;2022-11-22T00:41:34;2.20;;;2.00;;
13425;SDS011;6785;57.918;12.530;2022-11-22T00:44:01;2.13;;;1.93;;
13425;SDS011;6785;57.918;12.530;2022-11-22T00:46:29;2.23;;;1.60;;
13425;SDS011;6785;57.918;12.530;2022-11-22T00:48:56;3.00;;;1.57;;
13425;SDS011;6785;57.918;12.530;2022-11-22T00:51:23;2.23;;;1.70;;
13425;SDS011;6785;57.918;12.530;2022-11-22T00:53:49;2.57;;;1.90;;
13425;SDS011;6785;57.918;12.530;2022-11-22T00:56:16;2.67;;;2.00;;
13425;SDS011;6785;57.918;12.530;2022-11-22T00:58:44;2.20;;;1.87;;
13425;SDS011;6785;57.918;12.530;2022-11-22T01:01:11;1.43;;;1.33;;
13425;SDS011;6785;57.918;12.530;2022-11-22T01:03:38;2.10;;;1.90;;
13425;SDS011;6785;57.918;12.530;2022-11-22T01:06:05;3.73;;;1.63;;
13425;SDS011;6785;57.918;12.530;2022-11-22T01:08:32;2.37;;;1.70;;
13425;SDS011;6785;57.918;12.530;2022-11-22T01:10:59;1.60;;;1.50;;
13425;SDS011;6785;57.918;12.530;2022-11-22T01:13:27;3.37;;;1.40;;
13425;SDS011;6785;57.918;12.530;2022-11-22T01:15:58;2.40;;;1.70;;
13425;SDS011;6785;57.918;12.530;2022-11-22T01:18:26;3.80;;;1.70;;
13425;SDS011;6785;57.918;12.530;2022-11-22T01:20:53;2.73;;;1.93;;
13425;SDS011;6785;57.918;12.530;2022-11-22T01:23:20;2.13;;;1.70;;
13425;SDS011;6785;57.918;12.530;2022-11-22T01:25:47;1.87;;;1.77;;
13425;SDS011;6785;57.918;12.530;2022-11-22T01:28:14;1.83;;;1.40;;
13425;SDS011;6785;57.918;12.530;2022-11-22T01:30:41;2.03;;;1.50;;
13425;SDS011;6785;57.918;12.530;2022-11-22T01:33:09;1.90;;;1.70;;
13425;SDS011;6785;57.918;12.530;2022-11-22T01:35:36;2.10;;;1.90;;
13425;SDS011;6785;57.918;12.530;2022-11-22T01:38:03;1.50;;;1.40;;
13425;SDS011;6785;57.918;12.530;2022-11-22T01:40:30;2.00;;;1.60;;
13425;SDS011;6785;57.918;12.530;2022-11-22T01:42:58;2.27;;;1.90;;
13425;SDS011;6785;57.918;12.530;2022-11-22T01:45:35;1.80;;;1.60;;
13425;SDS011;6785;57.918;12.530;2022-11-22T01:48:06;2.13;;;1.80;;
13425;SDS011;6785;57.918;12.530;2022-11-22T01:50:48;1.90;;;1.70;;
13425;SDS011;6785;57.918;12.530;2022-11-22T01:53:19;2.60;;;1.80;;
13425;SDS011;6785;57.918;12.530;2022-11-22T01:55:49;2.10;;;1.90;;
13425;SDS011;6785;57.918;12.530;2022-11-22T01:58:17;1.70;;;1.60;;
13425;SDS011;6785;57.918;12.530;2022-11-22T02:00:46;4.53;;;1.83;;
13425;SDS011;6785;57.918;12.530;2022-11-22T02:03:18;3.07;;;1.90;;
13425;SDS011;6785;57.918;12.530;2022-11-22T02:05:46;2.23;;;1.90;;
13425;SDS011;6785;57.918;12.530;2022-11-22T02:08:16;1.60;;;1.50;;
13425;SDS011;6785;57.918;12.530;2022-11-22T02:10:48;1.70;;;1.60;;
13425;SDS011;6785;57.918;12.530;2022-11-22T02:13:18;1.77;;;1.63;;
13425;SDS011;6785;57.918;12.530;2022-11-22T02:15:47;1.77;;;1.67;;
13425;SDS011;6785;57.918;12.530;2022-11-22T02:18:14;1.80;;;1.70;;
13425;SDS011;6785;57.918;12.530;2022-11-22T02:20:42;1.80;;;1.70;;
13425;SDS011;6785;57.918;12.530;2022-11-22T02:23:10;2.17;;;1.67;;
13425;SDS011;6785;57.918;12.530;2022-11-22T02:25:48;1.83;;;1.73;;
13425;SDS011;6785;57.918;12.530;2022-11-22T02:28:19;1.93;;;1.67;;
13425;SDS011;6785;57.918;12.530;2022-11-22T02:30:46;2.00;;;1.70;;
13425;SDS011;6785;57.918;12.530;2022-11-22T02:33:13;1.93;;;1.80;;
13425;SDS011;6785;57.918;12.530;2022-11-22T02:35:40;2.47;;;2.07;;
13425;SDS011;6785;57.918;12.530;2022-11-22T02:38:07;2.07;;;1.80;;
13425;SDS011;6785;57.918;12.530;2022-11-22T02:40:37;1.73;;;1.63;;
13425;SDS011;6785;57.918;12.530;2022-11-22T02:43:10;2.37;;;1.80;;
13425;SDS011;6785;57.918;12.530;2022-11-22T02:45:40;1.57;;;1.47;;
13425;SDS011;6785;57.918;12.530;2022-11-22T02:48:09;2.50;;;1.93;;
13425;SDS011;6785;57.918;12.530;2022-11-22T02:50:38;2.10;;;1.90;;
13425;SDS011;6785;57.918;12.530;2022-11-22T02:53:05;1.90;;;1.70;;
13425;SDS011;6785;57.918;12.530;2022-11-22T02:55:32;1.80;;;1.70;;
13425;SDS011;6785;57.918;12.530;2022-11-22T02:58:01;3.10;;;2.47;;
13425;SDS011;6785;57.918;12.530;2022-11-22T03:00:31;2.10;;;1.90;;
13425;SDS011;6785;57.918;12.530;2022-11-22T03:02:58;2.43;;;2.07;;
13425;SDS011;6785;57.918;12.530;2022-11-22T03:05:24;2.17;;;1.90;;
13425;SDS011;6785;57.918;12.530;2022-11-22T03:07:51;3.37;;;1.70;;
13425;SDS011;6785;57.918;12.530;2022-11-22T03:10:18;2.00;;;1.77;;
13425;SDS011;6785;57.918;12.530;2022-11-22T03:12:45;3.00;;;2.23;;
13425;SDS011;6785;57.918;12.530;2022-11-22T03:15:12;2.47;;;1.90;;
13425;SDS011;6785;57.918;12.530;2022-11-22T03:17:40;2.10;;;1.90;;
13425;SDS011;6785;57.918;12.530;2022-11-22T03:20:07;2.40;;;2.10;;
13425;SDS011;6785;57.918;12.530;2022-11-22T03:22:34;2.13;;;1.97;;
13425;SDS011;6785;57.918;12.530;2022-11-22T03:25:01;2.53;;;2.07;;
13425;SDS011;6785;57.918;12.530;2022-11-22T03:27:29;2.30;;;1.93;;
13425;SDS011;6785;57.918;12.530;2022-11-22T03:29:55;2.30;;;2.10;;
13425;SDS011;6785;57.918;12.530;2022-11-22T03:32:22;2.30;;;2.10;;
13425;SDS011;6785;57.918;12.530;2022-11-22T03:34:50;2.37;;;1.90;;
13425;SDS011;6785;57.918;12.530;2022-11-22T03:37:17;2.53;;;1.90;;
13425;SDS011;6785;57.918;12.530;2022-11-22T03:39:44;2.30;;;2.10;;
13425;SDS011;6785;57.918;12.530;2022-11-22T03:42:11;2.10;;;1.90;;
13425;SDS011;6785;57.918;12.530;2022-11-22T03:44:37;2.20;;;2.00;;
13425;SDS011;6785;57.918;12.530;2022-11-22T03:47:04;1.97;;;1.73;;
13425;SDS011;6785;57.918;12.530;2022-11-22T03:49:31;2.20;;;1.90;;
13425;SDS011;6785;57.918;12.530;2022-11-22T03:51:59;2.17;;;1.97;;
13425;SDS011;6785;57.918;12.530;2022-11-22T03:54:26;2.20;;;2.00;;
13425;SDS011;6785;57.918;12.530;2022-11-22T03:56:53;1.77;;;1.53;;
13425;SDS011;6785;57.918;12.530;2022-11-22T03:59:19;1.70;;;1.60;;
13425;SDS011;6785;57.918;12.530;2022-11-22T04:01:46;3.07;;;2.00;;
13425;SDS011;6785;57.918;12.530;2022-11-22T04:04:13;2.00;;;1.80;;
13425;SDS011;6785;57.918;12.530;2022-11-22T04:06:40;2.00;;;1.80;;
13425;SDS011;6785;57.918;12.530;2022-11-22T04:09:08;1.77;;;1.67;;
13425;SDS011;6785;57.918;12.530;2022-11-22T04:11:35;2.10;;;1.70;;
13425;SDS011;6785;57.918;12.530;2022-11-22T04:14:02;2.03;;;1.83;;
13425;SDS011;6785;57.918;12.530;2022-11-22T04:16:46;2.10;;;1.90;;
13425;SDS011;6785;57.918;12.530;2022-11-22T04:19:13;2.17;;;1.80;;
13425;SDS011;6785;57.918;12.530;2022-11-22T04:21:40;2.37;;;2.00;;
13425;SDS011;6785;57.918;12.530;2022-11-22T04:24:07;2.33;;;2.03;;
13425;SDS011;6785;57.918;12.530;2022-11-22T04:26:53;2.00;;;1.80;;
13425;SDS011;6785;57.918;12.530;2022-11-22T04:29:21;2.33;;;2.00;;
13425;SDS011;6785;57.918;12.530;2022-11-22T04:31:48;2.43;;;2.10;;
13425;SDS011;6785;57.918;12.530;2022-11-22T04:34:34;2.67;;;2.13;;
13425;SDS011;6785;57.918;12.530;2022-11-22T04:37:02;2.07;;;1.87;;
13425;SDS011;6785;57.918;12.530;2022-11-22T04:39:31;2.00;;;1.80;;
13425;SDS011;6785;57.918;12.530;2022-11-22T04:41:58;2.20;;;1.90;;
13425;SDS011;6785;57.918;12.530;2022-11-22T04:44:43;2.07;;;1.80;;
13425;SDS011;6785;57.918;12.530;2022-11-22T04:47:10;2.10;;;1.80;;
13425;SDS011;6785;57.918;12.530;2022-11-22T04:49:58;2.27;;;2.00;;
13425;SDS011;6785;57.918;12.530;2022-11-22T04:52:25;2.53;;;2.30;;
13425;SDS011;6785;57.918;12.530;2022-11-22T04:55:10;3.53;;;2.00;;
13425;SDS011;6785;57.918;12.530;2022-11-22T04:57:37;2.57;;;2.10;;
13425;SDS011;6785;57.918;12.530;2022-11-22T05:00:04;3.03;;;2.30;;
13425;SDS011;6785;57.918;12.530;2022-11-22T05:02:32;8.30;;;2.47;;
13425;SDS011;6785;57.918;12.530;2022-11-22T05:04:59;3.03;;;2.33;;
13425;SDS011;6785;57.918;12.530;2022-11-22T05:07:26;2.90;;;2.43;;
13425;SDS011;6785;57.918;12.530;2022-11-22T05:09:52;2.27;;;1.93;;
13425;SDS011;6785;57.918;12.530;2022-11-22T05:12:20;3.03;;;2.43;;
13425;SDS011;6785;57.918;12.530;2022-11-22T05:14:47;2.30;;;2.10;;
13425;SDS011;6785;57.918;12.530;2022-11-22T05:17:14;2.70;;;2.23;;
13425;SDS011;6785;57.918;12.530;2022-11-22T05:19:41;2.60;;;2.27;;
13425;SDS011;6785;57.918;12.530;2022-11-22T05:22:07;2.93;;;2.30;;
13425;SDS011;6785;57.918;12.530;2022-11-22T05:24:34;2.50;;;1.93;;
13425;SDS011;6785;57.918;12.530;2022-11-22T05:27:00;2.50;;;2.30;;
13425;SDS011;6785;57.918;12.530;2022-11-22T05:29:28;2.50;;;2.17;;
13425;SDS011;6785;57.918;12.530;2022-11-22T05:31:55;2.83;;;2.30;;
13425;SDS011;6785;57.918;12.530;2022-11-22T05:34:22;2.50;;;2.00;;
13425;SDS011;6785;57.918;12.530;2022-11-22T05:36:48;2.97;;;2.10;;
13425;SDS011;6785;57.918;12.530;2022-11-22T05:39:15;2.50;;;2.30;;
13425;SDS011;6785;57.918;12.530;2022-11-22T05:41:42;2.97;;;2.67;;
13425;SDS011;6785;57.918;12.530;2022-11-22T05:44:19;2.70;;;2.30;;
13425;SDS011;6785;57.918;12.530;2022-11-22T05:46:48;2.63;;;2.43;;
13425;SDS011;6785;57.918;12.530;2022-11-22T05:49:14;3.43;;;2.80;;
13425;SDS011;6785;57.918;12.530;2022-11-22T05:51:41;4.67;;;3.20;;
13425;SDS011;6785;57.918;12.530;2022-11-22T05:54:08;4.40;;;3.20;;
13425;SDS011;6785;57.918;12.530;2022-11-22T05:56:35;3.07;;;2.60;;
13425;SDS011;6785;57.918;12.530;2022-11-22T05:59:02;2.67;;;2.47;;
13425;SDS011;6785;57.918;12.530;2022-11-22T06:01:29;3.17;;;2.63;;
13425;SDS011;6785;57.918;12.530;2022-11-22T06:03:57;3.97;;;3.10;;
13425;SDS011;6785;57.918;12.530;2022-11-22T06:06:24;3.00;;;2.43;;
13425;SDS011;6785;57.918;12.530;2022-11-22T06:08:50;3.83;;;2.23;;
13425;SDS011;6785;57.918;12.530;2022-11-22T06:11:18;3.27;;;2.40;;
13425;SDS011;6785;57.918;12.530;2022-11-22T06:13:47;2.10;;;1.80;;
13425;SDS011;6785;57.918;12.530;2022-11-22T06:16:15;3.17;;;2.63;;
13425;SDS011;6785;57.918;12.530;2022-11-22T06:18:43;4.13;;;3.23;;
13425;SDS011;6785;57.918;12.530;2022-11-22T06:21:12;6.67;;;3.73;;
13425;SDS011;6785;57.918;12.530;2022-11-22T06:23:40;7.33;;;3.77;;
13425;SDS011;6785;57.918;12.530;2022-11-22T06:26:07;4.20;;;3.43;;
13425;SDS011;6785;57.918;12.530;2022-11-22T06:28:37;6.30;;;4.40;;
13425;SDS011;6785;57.918;12.530;2022-11-22T06:31:05;7.20;;;4.90;;
13425;SDS011;6785;57.918;12.530;2022-11-22T06:33:34;7.03;;;3.90;;
13425;SDS011;6785;57.918;12.530;2022-11-22T06:36:01;6.87;;;3.97;;
13425;SDS011;6785;57.918;12.530;2022-11-22T06:38:30;5.60;;;3.70;;
13425;SDS011;6785;57.918;12.530;2022-11-22T06:41:03;5.43;;;4.17;;
13425;SDS011;6785;57.918;12.530;2022-11-22T06:43:32;7.53;;;4.73;;
13425;SDS011;6785;57.918;12.530;2022-11-22T06:46:01;6.53;;;3.97;;
13425;SDS011;6785;57.918;12.530;2022-11-22T06:48:29;6.13;;;4.27;;
13425;SDS011;6785;57.918;12.530;2022-11-22T06:50:57;6.20;;;3.83;;
13425;SDS011;6785;57.918;12.530;2022-11-22T06:53:25;6.47;;;4.83;;
13425;SDS011;6785;57.918;12.530;2022-11-22T06:55:59;6.77;;;4.00;;
13425;SDS011;6785;57.918;12.530;2022-11-22T06:58:26;7.17;;;4.53;;
13425;SDS011;6785;57.918;12.530;2022-11-22T07:00:57;6.10;;;4.57;;
13425;SDS011;6785;57.918;12.530;2022-11-22T07:03:25;7.40;;;4.50;;
13425;SDS011;6785;57.918;12.530;2022-11-22T07:05:52;5.67;;;4.17;;
13425;SDS011;6785;57.918;12.530;2022-11-22T07:08:19;7.23;;;4.47;;
13425;SDS011;6785;57.918;12.530;2022-11-22T07:10:46;8.83;;;4.30;;
13425;SDS011;6785;57.918;12.530;2022-11-22T07:13:14;4.97;;;4.10;;
13425;SDS011;6785;57.918;12.530;2022-11-22T07:15:41;6.53;;;4.57;;
13425;SDS011;6785;57.918;12.530;2022-11-22T07:18:08;5.93;;;3.90;;
13425;SDS011;6785;57.918;12.530;2022-11-22T07:20:35;5.57;;;4.33;;
13425;SDS011;6785;57.918;12.530;2022-11-22T07:23:02;8.30;;;4.57;;
13425;SDS011;6785;57.918;12.530;2022-11-22T07:25:28;5.90;;;4.13;;
13425;SDS011;6785;57.918;12.530;2022-11-22T07:27:55;6.93;;;4.43;;
13425;SDS011;6785;57.918;12.530;2022-11-22T07:30:23;7.10;;;5.03;;
13425;SDS011;6785;57.918;12.530;2022-11-22T07:32:50;7.23;;;4.37;;
13425;SDS011;6785;57.918;12.530;2022-11-22T07:35:17;6.17;;;4.17;;
13425;SDS011;6785;57.918;12.530;2022-11-22T07:37:44;7.57;;;4.83;;
13425;SDS011;6785;57.918;12.530;2022-11-22T07:40:11;6.87;;;4.93;;
13425;SDS011;6785;57.918;12.530;2022-11-22T07:42:38;6.77;;;4.83;;
13425;SDS011;6785;57.918;12.530;2022-11-22T07:45:05;9.77;;;5.43;;
13425;SDS011;6785;57.918;12.530;2022-11-22T07:47:34;11.90;;;8.07;;
13425;SDS011;6785;57.918;12.530;2022-11-22T07:50:01;6.57;;;5.20;;
13425;SDS011;6785;57.918;12.530;2022-11-22T07:52:28;7.07;;;5.17;;
13425;SDS011;6785;57.918;12.530;2022-11-22T07:54:54;7.97;;;5.20;;
13425;SDS011;6785;57.918;12.530;2022-11-22T07:57:21;6.07;;;4.83;;
13425;SDS011;6785;57.918;12.530;2022-11-22T07:59:48;5.80;;;4.50;;
13425;SDS011;6785;57.918;12.530;2022-11-22T08:02:15;6.30;;;5.03;;
13425;SDS011;6785;57.918;12.530;2022-11-22T08:04:43;6.70;;;4.47;;
13425;SDS011;6785;57.918;12.530;2022-11-22T08:07:10;9.47;;;4.80;;
13425;SDS011;6785;57.918;12.530;2022-11-22T08:09:37;5.97;;;4.30;;
13425;SDS011;6785;57.918;12.530;2022-11-22T08:12:04;7.20;;;5.10;;
13425;SDS011;6785;57.918;12.530;2022-11-22T08:14:31;6.23;;;4.30;;
13425;SDS011;6785;57.918;12.530;2022-11-22T08:16:57;6.50;;;4.73;;
13425;SDS011;6785;57.918;12.530;2022-11-22T08:19:24;6.80;;;4.90;;
13425;SDS011;6785;57.918;12.530;2022-11-22T08:21:53;5.40;;;3.90;;
13425;SDS011;6785;57.918;12.530;2022-11-22T08:24:20;8.17;;;4.37;;
13425;SDS011;6785;57.918;12.530;2022-11-22T08:26:46;6.03;;;4.00;;
13425;SDS011;6785;57.918;12.530;2022-11-22T08:29:13;5.23;;;4.23;;
13425;SDS011;6785;57.918;12.530;2022-11-22T08:31:40;7.67;;;4.60;;
13425;SDS011;6785;57.918;12.530;2022-11-22T08:34:07;5.97;;;4.30;;
13425;SDS011;6785;57.918;12.530;2022-11-22T08:36:34;5.87;;;4.23;;
13425;SDS011;6785;57.918;12.530;2022-11-22T08:39:02;6.30;;;4.57;;
13425;SDS011;6785;57.918;12.530;2022-11-22T08:41:29;6.07;;;4.50;;
13425;SDS011;6785;57.918;12.530;2022-11-22T08:43:56;6.23;;;5.30;;
13425;SDS011;6785;57.918;12.530;2022-11-22T08:46:22;5.40;;;4.23;;
13425;SDS011;6785;57.918;12.530;2022-11-22T08:48:50;5.10;;;4.13;;
13425;SDS011;6785;57.918;12.530;2022-11-22T08:51:18;5.70;;;3.60;;
13425;SDS011;6785;57.918;12.530;2022-11-22T08:53:44;7.10;;;4.10;;
13425;SDS011;6785;57.918;12.530;2022-11-22T08:56:13;4.10;;;3.50;;
13425;SDS011;6785;57.918;12.530;2022-11-22T08:58:41;7.30;;;4.07;;
13425;SDS011;6785;57.918;12.530;2022-11-22T09:01:08;6.73;;;4.07;;
13425;SDS011;6785;57.918;12.530;2022-11-22T09:03:37;4.67;;;3.93;;
13425;SDS011;6785;57.918;12.530;2022-11-22T09:06:05;5.77;;;4.03;;
13425;SDS011;6785;57.918;12.530;2022-11-22T09:08:33;5.07;;;4.33;;
13425;SDS011;6785;57.918;12.530;2022-11-22T09:11:01;5.20;;;3.77;;
13425;SDS011;6785;57.918;12.530;2022-11-22T09:13:30;6.70;;;4.07;;
13425;SDS011;6785;57.918;12.530;2022-11-22T09:16:00;5.73;;;4.17;;
13425;SDS011;6785;57.918;12.530;2022-11-22T09:18:27;6.00;;;3.60;;
13425;SDS011;6785;57.918;12.530;2022-11-22T09:20:56;6.37;;;4.17;;
13425;SDS011;6785;57.918;12.530;2022-11-22T09:23:23;4.60;;;3.53;;
13425;SDS011;6785;57.918;12.530;2022-11-22T09:25:55;4.97;;;3.80;;
13425;SDS011;6785;57.918;12.530;2022-11-22T09:28:22;5.40;;;4.00;;
13425;SDS011;6785;57.918;12.530;2022-11-22T09:30:52;4.63;;;3.73;;
13425;SDS011;6785;57.918;12.530;2022-11-22T09:33:24;5.53;;;3.60;;
13425;SDS011;6785;57.918;12.530;2022-11-22T09:35:55;12.73;;;4.03;;
13425;SDS011;6785;57.918;12.530;2022-11-22T09:38:24;6.20;;;4.57;;
13425;SDS011;6785;57.918;12.530;2022-11-22T09:40:51;6.93;;;5.07;;
13425;SDS011;6785;57.918;12.530;2022-11-22T09:43:19;9.40;;;6.53;;
13425;SDS011;6785;57.918;12.530;2022-11-22T09:46:01;6.73;;;4.80;;
13425;SDS011;6785;57.918;12.530;2022-11-22T09:48:47;3.93;;;3.53;;
13425;SDS011;6785;57.918;12.530;2022-11-22T09:51:32;4.83;;;4.33;;
13425;SDS011;6785;57.918;12.530;2022-11-22T09:54:04;5.17;;;4.37;;
13425;SDS011;6785;57.918;12.530;2022-11-22T09:56:34;7.70;;;5.53;;
13425;SDS011;6785;57.918;12.530;2022-11-22T09:59:03;6.13;;;5.47;;
13425;SDS011;6785;57.918;12.530;2022-11-22T10:01:36;5.17;;;4.10;;
13425;SDS011;6785;57.918;12.530;2022-11-22T10:04:09;5.10;;;4.30;;
13425;SDS011;6785;57.918;12.530;2022-11-22T10:06:39;4.80;;;3.87;;
13425;SDS011;6785;57.918;12.530;2022-11-22T10:09:17;4.17;;;3.37;;
13425;SDS011;6785;57.918;12.530;2022-11-22T10:11:50;4.40;;;3.40;;
13425;SDS011;6785;57.918;12.530;2022-11-22T10:14:24;4.13;;;3.43;;
13425;SDS011;6785;57.918;12.530;2022-11-22T10:16:58;3.73;;;3.30;;
13425;SDS011;6785;57.918;12.530;2022-11-22T10:19:33;3.70;;;3.20;;
13425;SDS011;6785;57.918;12.530;2022-11-22T10:22:07;3.77;;;3.27;;
13425;SDS011;6785;57.918;12.530;2022-11-22T10:24:36;3.77;;;2.90;;
13425;SDS011;6785;57.918;12.530;2022-11-22T10:27:03;3.60;;;3.30;;
13425;SDS011;6785;57.918;12.530;2022-11-22T10:29:37;3.30;;;3.00;;
13425;SDS011;6785;57.918;12.530;2022-11-22T10:32:10;3.67;;;3.10;;
13425;SDS011;6785;57.918;12.530;2022-11-22T10:34:53;5.30;;;3.70;;
13425;SDS011;6785;57.918;12.530;2022-11-22T10:37:33;4.70;;;3.30;;
13425;SDS011;6785;57.918;12.530;2022-11-22T10:40:08;4.40;;;3.47;;
13425;SDS011;6785;57.918;12.530;2022-11-22T10:42:47;4.77;;;3.67;;
13425;SDS011;6785;57.918;12.530;2022-11-22T10:45:32;4.10;;;3.53;;
13425;SDS011;6785;57.918;12.530;2022-11-22T10:48:07;5.10;;;3.77;;
13425;SDS011;6785;57.918;12.530;2022-11-22T10:50:46;4.20;;;3.60;;
13425;SDS011;6785;57.918;12.530;2022-11-22T10:53:24;5.47;;;4.27;;
13425;SDS011;6785;57.918;12.530;2022-11-22T10:56:03;5.03;;;3.63;;
13425;SDS011;6785;57.918;12.530;2022-11-22T10:58:40;5.70;;;3.63;;
13425;SDS011;6785;57.918;12.530;2022-11-22T11:01:17;4.47;;;3.70;;
13425;SDS011;6785;57.918;12.530;2022-11-22T11:03:58;5.70;;;3.47;;
13425;SDS011;6785;57.918;12.530;2022-11-22T11:06:25;4.87;;;3.33;;
13425;SDS011;6785;57.918;12.530;2022-11-22T11:09:00;4.17;;;3.20;;
13425;SDS011;6785;57.918;12.530;2022-11-22T11:11:31;3.93;;;3.40;;
13425;SDS011;6785;57.918;12.530;2022-11-22T11:14:00;3.57;;;3.23;;
13425;SDS011;6785;57.918;12.530;2022-11-22T11:16:34;3.23;;;2.73;;
13425;SDS011;6785;57.918;12.530;2022-11-22T11:19:07;3.20;;;2.90;;
13425;SDS011;6785;57.918;12.530;2022-11-22T11:21:41;5.40;;;3.00;;
13425;SDS011;6785;57.918;12.530;2022-11-22T11:24:10;3.83;;;2.83;;
13425;SDS011;6785;57.918;12.530;2022-11-22T11:26:39;3.83;;;3.13;;
13425;SDS011;6785;57.918;12.530;2022-11-22T11:32:04;2.47;;;2.27;;
13425;SDS011;6785;57.918;12.530;2022-11-22T11:34:36;3.40;;;3.10;;
13425;SDS011;6785;57.918;12.530;2022-11-22T11:37:08;4.37;;;3.27;;
13425;SDS011;6785;57.918;12.530;2022-11-22T11:39:44;3.87;;;2.63;;
13425;SDS011;6785;57.918;12.530;2022-11-22T11:45:12;3.57;;;3.07;;
13425;SDS011;6785;57.918;12.530;2022-11-22T11:47:45;3.33;;;2.70;;
13425;SDS011;6785;57.918;12.530;2022-11-22T11:50:17;3.60;;;3.10;;
13425;SDS011;6785;57.918;12.530;2022-11-22T11:52:48;3.50;;;3.17;;
13425;SDS011;6785;57.918;12.530;2022-11-22T11:55:16;3.73;;;3.03;;
13425;SDS011;6785;57.918;12.530;2022-11-22T11:57:43;3.63;;;3.00;;
13425;SDS011;6785;57.918;12.530;2022-11-22T12:00:18;4.43;;;3.10;;
13425;SDS011;6785;57.918;12.530;2022-11-22T12:02:48;3.20;;;2.73;;
13425;SDS011;6785;57.918;12.530;2022-11-22T12:05:27;4.40;;;3.23;;
13425;SDS011;6785;57.918;12.530;2022-11-22T12:07:55;3.77;;;3.20;;
13425;SDS011;6785;57.918;12.530;2022-11-22T12:10:27;5.20;;;3.47;;
13425;SDS011;6785;57.918;12.530;2022-11-22T12:12:58;7.90;;;3.20;;
13425;SDS011;6785;57.918;12.530;2022-11-22T12:15:32;5.80;;;3.20;;
13425;SDS011;6785;57.918;12.530;2022-11-22T12:18:09;3.23;;;2.90;;
13425;SDS011;6785;57.918;12.530;2022-11-22T12:20:50;5.20;;;3.70;;
13425;SDS011;6785;57.918;12.530;2022-11-22T12:23:23;3.57;;;3.00;;
13425;SDS011;6785;57.918;12.530;2022-11-22T12:25:56;3.83;;;3.07;;
13425;SDS011;6785;57.918;12.530;2022-11-22T12:28:24;7.00;;;3.50;;
13425;SDS011;6785;57.918;12.530;2022-11-22T12:30:54;4.37;;;3.53;;
13425;SDS011;6785;57.918;12.530;2022-11-22T12:33:25;4.87;;;3.40;;
13425;SDS011;6785;57.918;12.530;2022-11-22T12:35:57;5.33;;;3.93;;
13425;SDS011;6785;57.918;12.530;2022-11-22T12:38:24;6.50;;;4.00;;
13425;SDS011;6785;57.918;12.530;2022-11-22T12:40:56;5.00;;;3.30;;
13425;SDS011;6785;57.918;12.530;2022-11-22T12:43:26;4.67;;;3.00;;
13425;SDS011;6785;57.918;12.530;2022-11-22T12:45:57;3.87;;;2.63;;
13425;SDS011;6785;57.918;12.530;2022-11-22T12:48:31;3.40;;;2.90;;
13425;SDS011;6785;57.918;12.530;2022-11-22T12:51:05;3.73;;;3.07;;
13425;SDS011;6785;57.918;12.530;2022-11-22T12:53:38;4.30;;;3.13;;
13425;SDS011;6785;57.918;12.530;2022-11-22T12:56:10;3.80;;;3.00;;
13425;SDS011;6785;57.918;12.530;2022-11-22T12:58:48;2.93;;;2.67;;
13425;SDS011;6785;57.918;12.530;2022-11-22T13:01:21;5.27;;;2.97;;
13425;SDS011;6785;57.918;12.530;2022-11-22T13:03:52;4.13;;;3.40;;
13425;SDS011;6785;57.918;12.530;2022-11-22T13:06:26;7.20;;;3.57;;
13425;SDS011;6785;57.918;12.530;2022-11-22T13:08:57;4.43;;;3.67;;
13425;SDS011;6785;57.918;12.530;2022-11-22T13:11:28;4.50;;;3.60;;
13425;SDS011;6785;57.918;12.530;2022-11-22T13:13:57;4.63;;;3.40;;
13425;SDS011;6785;57.918;12.530;2022-11-22T13:16:30;6.33;;;3.73;;
13425;SDS011;6785;57.918;12.530;2022-11-22T13:18:57;5.33;;;3.60;;
13425;SDS011;6785;57.918;12.530;2022-11-22T13:21:29;4.23;;;3.50;;
13425;SDS011;6785;57.918;12.530;2022-11-22T13:27:07;5.80;;;4.10;;
13425;SDS011;6785;57.918;12.530;2022-11-22T13:29:42;5.60;;;3.67;;
13425;SDS011;6785;57.918;12.530;2022-11-22T13:32:16;6.43;;;4.10;;
13425;SDS011;6785;57.918;12.530;2022-11-22T13:35:01;5.97;;;4.00;;
13425;SDS011;6785;57.918;12.530;2022-11-22T13:37:34;7.03;;;4.43;;
13425;SDS011;6785;57.918;12.530;2022-11-22T13:40:16;5.77;;;4.23;;
13425;SDS011;6785;57.918;12.530;2022-11-22T13:45:50;6.83;;;4.20;;
13425;SDS011;6785;57.918;12.530;2022-11-22T13:51:47;7.77;;;4.27;;
13425;SDS011;6785;57.918;12.530;2022-11-22T13:54:37;8.20;;;4.47;;
13425;SDS011;6785;57.918;12.530;2022-11-22T14:03:23;7.17;;;5.33;;
13425;SDS011;6785;57.918;12.530;2022-11-22T14:06:13;16.57;;;10.97;;
13425;SDS011;6785;57.918;12.530;2022-11-22T14:08:46;8.83;;;6.63;;
13425;SDS011;6785;57.918;12.530;2022-11-22T14:11:21;6.97;;;5.87;;
13425;SDS011;6785;57.918;12.530;2022-11-22T14:13:58;9.50;;;6.07;;
13425;SDS011;6785;57.918;12.530;2022-11-22T14:19:32;11.60;;;7.53;;
13425;SDS011;6785;57.918;12.530;2022-11-22T14:22:17;12.10;;;5.70;;
13425;SDS011;6785;57.918;12.530;2022-11-22T14:27:42;11.07;;;6.10;;
13425;SDS011;6785;57.918;12.530;2022-11-22T14:30:16;8.20;;;6.87;;
13425;SDS011;6785;57.918;12.530;2022-11-22T14:32:48;8.30;;;6.00;;
13425;SDS011;6785;57.918;12.530;2022-11-22T14:35:22;7.17;;;5.40;;
13425;SDS011;6785;57.918;12.530;2022-11-22T14:37:58;7.97;;;6.20;;
13425;SDS011;6785;57.918;12.530;2022-11-22T14:40:49;11.40;;;5.60;;
13425;SDS011;6785;57.918;12.530;2022-11-22T14:43:25;11.63;;;5.67;;
13425;SDS011;6785;57.918;12.530;2022-11-22T14:45:55;8.60;;;5.83;;
13425;SDS011;6785;57.918;12.530;2022-11-22T14:48:27;9.23;;;6.20;;
13425;SDS011;6785;57.918;12.530;2022-11-22T14:50:59;9.83;;;5.97;;
13425;SDS011;6785;57.918;12.530;2022-11-22T14:53:35;9.90;;;5.97;;
13425;SDS011;6785;57.918;12.530;2022-11-22T14:56:05;10.20;;;6.73;;
13425;SDS011;6785;57.918;12.530;2022-11-22T14:58:41;10.03;;;6.40;;
13425;SDS011;6785;57.918;12.530;2022-11-22T15:01:21;9.87;;;5.63;;
13425;SDS011;6785;57.918;12.530;2022-11-22T15:04:08;9.13;;;5.60;;
13425;SDS011;6785;57.918;12.530;2022-11-22T15:07:03;9.23;;;5.93;;
13425;SDS011;6785;57.918;12.530;2022-11-22T15:09:44;10.20;;;6.27;;
13425;SDS011;6785;57.918;12.530;2022-11-22T15:15:27;8.03;;;5.67;;
13425;SDS011;6785;57.918;12.530;2022-11-22T15:17:56;10.87;;;6.30;;
13425;SDS011;6785;57.918;12.530;2022-11-22T15:20:32;10.97;;;6.83;;
13425;SDS011;6785;57.918;12.530;2022-11-22T15:23:03;8.33;;;5.80;;
13425;SDS011;6785;57.918;12.530;2022-11-22T15:25:31;8.60;;;6.20;;
13425;SDS011;6785;57.918;12.530;2022-11-22T15:27:58;9.50;;;6.27;;
13425;SDS011;6785;57.918;12.530;2022-11-22T15:30:26;11.07;;;7.03;;
13425;SDS011;6785;57.918;12.530;2022-11-22T15:32:54;9.03;;;6.27;;
13425;SDS011;6785;57.918;12.530;2022-11-22T15:35:33;11.37;;;6.37;;
13425;SDS011;6785;57.918;12.530;2022-11-22T15:38:10;11.13;;;6.73;;